Batchelor, Northern Territory

4:32 AM ACST on October 26, 2014 (GMT +0930)
Darwin International | Change Station
CLOSE
Current Station
Airport
Location: Darwin,
Elevation: 98 ft
Nearby Weather Stations

Elev 98 ft 12.42 °S, 130.89 °E | Updated 32 minutes ago

Clear
Clear
77 °F
Feels Like 77 °F
N
6
Wind Variable Wind from NE

Today
High -- | Low -- °F
--% Chance of Precip.
Yesterday
High -- | Low -- °F
Precip. -- in
6:14 AM 6:45 PM
Waxing Crescent, 4% visible
Pressure 29.92 in
Visibility -9999.0 miles
Clouds
Dew Point 72 °F
Humidity 83%
Rainfall 0.00 in
Snow Depth Not available.
UV Not available.
Pollen Not available.
Air Quality Not available.
Flu Activity Not available.
METAR YPDN 251830Z 05005KT CAVOK 25/22 Q1013

More Conditions Fewer Conditions

Pressure 29.92 in
Visibility -9999.0 miles
Clouds
Dew Point 72 °F
Humidity 83%
Rainfall 0.00 in
Snow Depth Not available.
UV Not available.
Pollen Not available.
Air Quality Not available.
Flu Activity Not available.
METAR YPDN 251830Z 05005KT CAVOK 25/22 Q1013

More Conditions Fewer Conditions

10-Day Weather Forecast

Almanac

Astronomy

Oct. 26, 2014 Rise Set
Actual Time 6:14 AM ACST 6:45 PM ACST
Civil Twilight 5:53 AM ACST 7:06 PM ACST
Nautical Twilight 5:27 AM ACST 7:32 PM ACST
Astronomical Twilight 5:01 AM ACST 7:58 PM ACST
Moon 7:54 AM ACST (10/26) 8:52 PM ACST (10/26)
Length of Visible Light 13h 13m
Length of Day
12h 30m
Tomorrow will be 0m 41s longer.
Waxing Crescent, 4% of the Moon is Illuminated
Oct 25
Waxing Crescent
Oct 30
First Quarter
Nov 6
Full
Nov 14
Last Quarter
Nov 22
New

Yesterday's Extremes

Country Highs Country Lows

Community

WunderPhotos

Upload Photos

1,764,958 photos uploaded!

Nearby

Snow Depth

Not available.

Earthquake Activity

City Distance Mag. Time & Date
No recent earthquake activity has been reported nearby.
Minimum magnitude displayed is 2.5.

Coastal Water Temperatures

Place Temperature
No Stations Reporting

Nearby Weather Stations